createdAt,value
2023-01-17T00:02:02.904Z,94.56
2023-01-17T00:04:48.557Z,94.02
2023-01-17T00:07:36.588Z,94.17
2023-01-17T00:10:18.389Z,93.61
2023-01-17T00:12:51.036Z,94.33
2023-01-17T00:15:20.360Z,94.43
2023-01-17T00:17:48.515Z,93.79
2023-01-17T00:20:37.052Z,93.58
2023-01-17T00:23:43.137Z,94.24
2023-01-17T00:26:16.993Z,93.83
2023-01-17T00:28:44.610Z,94.86
2023-01-17T00:31:13.638Z,93.77
2023-01-17T00:33:43.712Z,93.87
2023-01-17T00:36:11.366Z,94.01
2023-01-17T00:38:39.705Z,94.26
2023-01-17T00:41:12.135Z,94.38
2023-01-17T00:43:57.822Z,93.38
2023-01-17T00:46:43.566Z,93.82
2023-01-17T00:49:29.333Z,93.92
2023-01-17T00:52:14.577Z,93.15
2023-01-17T00:55:00.344Z,93.77
2023-01-17T00:57:45.662Z,93.74
2023-01-17T01:00:31.518Z,92.89
2023-01-17T01:03:17.286Z,93.41
2023-01-17T01:06:02.457Z,92.86
2023-01-17T01:08:49.333Z,92.74
2023-01-17T01:11:39.735Z,93.26
2023-01-17T01:14:28.815Z,92.49
2023-01-17T01:17:14.071Z,92.87
2023-01-17T01:19:59.828Z,93.09
2023-01-17T01:22:45.390Z,93.63
2023-01-17T01:25:31.011Z,93.19
2023-01-17T01:28:30.798Z,92.93
2023-01-17T01:31:19.107Z,93.40
2023-01-17T01:33:46.063Z,93.29
2023-01-17T01:36:13.031Z,93.83
2023-01-17T01:38:40.281Z,92.60
2023-01-17T01:41:07.399Z,92.59
2023-01-17T01:43:48.210Z,92.44
2023-01-17T01:46:27.292Z,92.60
2023-01-17T01:49:01.939Z,92.52
2023-01-17T01:51:35.307Z,93.51
2023-01-17T01:54:10.929Z,93.71
2023-01-17T01:56:39.356Z,93.17
2023-01-17T01:59:10.883Z,92.86
2023-01-17T02:01:38.028Z,92.83
2023-01-17T02:04:10.118Z,93.08
2023-01-17T02:07:07.575Z,92.31
2023-01-17T02:09:52.569Z,91.95
2023-01-17T02:12:30.689Z,92.70
2023-01-17T02:15:18.679Z,92.30
2023-01-17T02:18:53.307Z,93.35
2023-01-17T02:21:59.098Z,92.63
2023-01-17T02:25:19.172Z,92.79
2023-01-17T02:28:18.594Z,92.50
2023-01-17T02:31:01.070Z,93.09
2023-01-17T02:33:36.405Z,93.19
2023-01-17T02:36:19.404Z,91.86
2023-01-17T02:39:11.335Z,92.49
2023-01-17T02:41:41.858Z,92.40
2023-01-17T02:44:10.523Z,93.04
2023-01-17T02:46:48.494Z,93.79
2023-01-17T02:49:18.033Z,94.15
2023-01-17T02:52:13.157Z,93.47
2023-01-17T02:54:53.947Z,93.15
2023-01-17T02:57:39.049Z,93.96
2023-01-17T03:00:24.711Z,92.92
2023-01-17T03:02:58.271Z,94.14
2023-01-17T03:05:47.149Z,94.19
2023-01-17T03:08:16.184Z,94.43
2023-01-17T03:10:44.703Z,94.12
2023-01-17T03:13:11.694Z,95.30
2023-01-17T03:15:41.101Z,94.76
2023-01-17T03:18:14.987Z,95.22
2023-01-17T03:20:42.544Z,95.98
2023-01-17T03:23:09.469Z,96.48
2023-01-17T03:25:36.455Z,96.93
2023-01-17T03:28:03.756Z,96.91
2023-01-17T03:30:30.928Z,97.83
2023-01-17T03:32:57.933Z,98.32
2023-01-17T03:35:24.859Z,97.74
2023-01-17T03:37:51.774Z,98.53
2023-01-17T03:40:18.800Z,97.58
2023-01-17T03:42:45.865Z,97.38
2023-01-17T03:45:12.808Z,98.58
2023-01-17T03:47:40.081Z,99.86
2023-01-17T03:50:07.332Z,100.00
2023-01-17T03:52:34.403Z,100.00
2023-01-17T03:55:02.869Z,100.00
2023-01-17T03:57:30.035Z,100.00
2023-01-17T03:59:57.094Z,100.00
2023-01-17T04:02:24.871Z,100.00
2023-01-17T04:04:53.953Z,100.00
2023-01-17T04:07:20.967Z,100.00
2023-01-17T04:09:47.901Z,100.00
2023-01-17T04:12:14.860Z,100.00
2023-01-17T04:14:41.801Z,100.00
2023-01-17T04:17:13.302Z,100.00
2023-01-17T04:19:41.470Z,100.00
2023-01-17T04:22:08.899Z,100.00
2023-01-17T04:24:36.160Z,99.98
2023-01-17T04:27:05.244Z,99.71
2023-01-17T04:29:32.791Z,99.80
2023-01-17T04:31:59.690Z,100.00
2023-01-17T04:34:27.184Z,99.52
2023-01-17T04:36:54.155Z,99.86
2023-01-17T04:39:21.084Z,99.31
2023-01-17T04:41:48.662Z,100.00
2023-01-17T04:44:15.618Z,99.57
2023-01-17T04:46:42.533Z,100.00
2023-01-17T04:49:09.403Z,100.00
2023-01-17T04:51:36.570Z,99.75
2023-01-17T04:54:04.649Z,99.50
2023-01-17T04:56:31.662Z,99.61
2023-01-17T04:58:58.834Z,99.55
2023-01-17T05:01:26.211Z,99.94
2023-01-17T05:03:53.155Z,100.00
2023-01-17T05:06:20.067Z,100.00
2023-01-17T05:08:47.248Z,100.00
2023-01-17T05:11:14.324Z,100.00
2023-01-17T05:13:41.264Z,100.00
2023-01-17T05:16:09.818Z,100.00
2023-01-17T05:18:37.867Z,100.00
2023-01-17T05:21:05.715Z,99.47
2023-01-17T05:23:33.315Z,99.50
2023-01-17T05:26:00.353Z,99.67
2023-01-17T05:28:27.279Z,100.00
2023-01-17T05:30:54.236Z,100.00
2023-01-17T05:33:21.184Z,100.00
2023-01-17T05:35:48.105Z,100.00
2023-01-17T05:38:15.053Z,100.00
2023-01-17T05:40:42.071Z,100.00
2023-01-17T05:43:09.840Z,100.00
2023-01-17T05:45:36.787Z,100.00
2023-01-17T05:48:04.304Z,100.00
2023-01-17T05:50:33.650Z,100.00
2023-01-17T05:53:08.731Z,100.00
2023-01-17T05:55:38.144Z,99.91
2023-01-17T05:58:06.587Z,98.85
2023-01-17T06:00:33.559Z,99.83
2023-01-17T06:03:01.731Z,100.00
2023-01-17T06:05:30.449Z,100.00
2023-01-17T06:07:57.652Z,100.00
2023-01-17T06:10:24.969Z,100.00
2023-01-17T06:13:08.463Z,100.00
2023-01-17T06:15:37.600Z,100.00
2023-01-17T06:18:16.135Z,100.00
2023-01-17T06:20:44.222Z,100.00
2023-01-17T06:23:14.358Z,100.00
2023-01-17T06:25:46.682Z,100.00
2023-01-17T06:28:16.235Z,100.00
2023-01-17T06:30:44.388Z,100.00
2023-01-17T06:33:12.533Z,100.00
2023-01-17T06:35:41.147Z,99.99
2023-01-17T06:38:10.212Z,99.20
2023-01-17T06:40:37.140Z,98.84
2023-01-17T06:43:05.297Z,98.89
2023-01-17T06:45:35.248Z,98.58
2023-01-17T06:48:04.338Z,99.25
2023-01-17T06:50:34.724Z,98.20
2023-01-17T06:53:04.575Z,98.14
2023-01-17T06:55:34.016Z,98.34
2023-01-17T06:58:03.161Z,100.00
2023-01-17T07:00:40.712Z,99.94
2023-01-17T07:03:17.578Z,100.00
2023-01-17T07:05:44.597Z,100.00
2023-01-17T07:08:11.534Z,100.00
2023-01-17T07:10:38.464Z,100.00
2023-01-17T07:13:05.415Z,100.00
2023-01-17T07:15:33.528Z,100.00
2023-01-17T07:18:02.206Z,100.00
2023-01-17T07:20:29.260Z,100.00
2023-01-17T07:22:56.345Z,100.00
2023-01-17T07:25:23.583Z,100.00
2023-01-17T07:27:54.996Z,100.00
2023-01-17T07:30:22.408Z,100.00
2023-01-17T07:32:53.648Z,99.39
2023-01-17T07:35:21.279Z,99.13
2023-01-17T07:37:49.745Z,98.20
2023-01-17T07:40:17.914Z,98.37
2023-01-17T07:42:45.331Z,98.74
2023-01-17T07:45:15.027Z,98.87
2023-01-17T07:47:42.173Z,99.17
2023-01-17T07:50:10.061Z,99.49
2023-01-17T07:52:37.023Z,100.00
2023-01-17T07:55:04.123Z,99.61
2023-01-17T07:57:32.982Z,99.64
2023-01-17T08:00:00.140Z,99.00
2023-01-17T08:02:27.069Z,98.64
2023-01-17T08:04:53.991Z,98.16
2023-01-17T08:07:21.062Z,96.99
2023-01-17T08:09:49.931Z,97.17
2023-01-17T08:12:17.462Z,97.23
2023-01-17T08:14:44.876Z,96.46
2023-01-17T08:17:17.065Z,97.17
2023-01-17T08:19:45.104Z,96.32
2023-01-17T08:22:12.619Z,95.89
2023-01-17T08:24:39.571Z,96.48
2023-01-17T08:27:06.531Z,96.58
2023-01-17T08:29:33.546Z,96.40
2023-01-17T08:32:00.536Z,95.33
2023-01-17T08:34:27.575Z,95.21
2023-01-17T08:36:54.794Z,94.38
2023-01-17T08:39:22.109Z,95.24
2023-01-17T08:41:48.988Z,95.05
2023-01-17T08:44:18.935Z,94.60
2023-01-17T08:46:46.321Z,94.13
2023-01-17T08:49:13.336Z,94.13
2023-01-17T08:51:40.540Z,94.12
2023-01-17T08:54:09.745Z,92.99
2023-01-17T08:56:36.698Z,92.34
2023-01-17T08:59:04.851Z,91.53
2023-01-17T09:01:40.993Z,92.28
2023-01-17T09:04:09.597Z,90.58
2023-01-17T09:06:39.498Z,90.99
2023-01-17T09:09:08.286Z,89.95
2023-01-17T09:11:35.250Z,90.71
2023-01-17T09:14:02.243Z,89.58
2023-01-17T09:16:29.631Z,89.39
2023-01-17T09:18:58.204Z,90.17
2023-01-17T09:21:26.567Z,89.80
2023-01-17T09:23:54.695Z,88.57
2023-01-17T09:26:27.352Z,88.35
2023-01-17T09:28:54.935Z,88.02
2023-01-17T09:31:23.280Z,88.15
2023-01-17T09:33:51.557Z,87.53
2023-01-17T09:36:18.964Z,87.50
2023-01-17T09:38:46.512Z,86.76
2023-01-17T09:41:22.470Z,87.55
2023-01-17T09:44:18.756Z,85.70
2023-01-17T09:46:49.379Z,85.70
2023-01-17T09:49:19.298Z,86.17
2023-01-17T09:51:46.474Z,84.99
2023-01-17T09:54:39.298Z,84.86
2023-01-17T09:57:29.204Z,84.93
2023-01-17T10:00:25.293Z,84.90
2023-01-17T10:03:32.287Z,84.55
2023-01-17T10:06:11.885Z,84.18
2023-01-17T10:08:54.190Z,83.73
2023-01-17T10:11:31.018Z,83.68
2023-01-17T10:14:16.350Z,82.58
2023-01-17T10:16:49.116Z,83.69
2023-01-17T10:19:53.013Z,83.69
2023-01-17T10:22:55.216Z,83.25
2023-01-17T10:25:46.817Z,83.36
2023-01-17T10:28:21.815Z,82.90
2023-01-17T10:30:58.347Z,82.50
2023-01-17T10:33:29.795Z,82.64
2023-01-17T10:36:03.954Z,82.96
2023-01-17T10:38:34.945Z,81.95
2023-01-17T10:41:10.983Z,79.67
2023-01-17T10:43:50.891Z,79.30
2023-01-17T10:46:25.336Z,78.34
2023-01-17T10:48:53.143Z,77.66
2023-01-17T10:51:44.207Z,75.80
2023-01-17T10:54:36.269Z,74.33
2023-01-17T10:57:03.270Z,73.46
2023-01-17T10:59:33.759Z,74.06
2023-01-17T11:02:07.227Z,73.32
2023-01-17T11:04:37.829Z,72.37
2023-01-17T11:07:16.457Z,72.25
2023-01-17T11:09:46.311Z,73.44
2023-01-17T11:12:46.373Z,72.33
2023-01-17T11:15:23.016Z,73.18
2023-01-17T11:18:02.478Z,72.29
2023-01-17T11:20:37.206Z,69.27
2023-01-17T11:23:16.029Z,70.04
2023-01-17T11:25:58.540Z,69.16
2023-01-17T11:28:30.816Z,68.83
2023-01-17T11:30:59.052Z,69.75
2023-01-17T11:33:55.873Z,68.72
2023-01-17T11:36:30.961Z,67.20
2023-01-17T11:39:27.731Z,67.67
2023-01-17T11:41:54.848Z,67.71
2023-01-17T11:44:30.762Z,65.98
2023-01-17T11:47:13.061Z,66.32
2023-01-17T11:49:45.137Z,66.63
2023-01-17T11:52:39.381Z,66.70
2023-01-17T11:55:07.599Z,67.03
2023-01-17T11:57:36.424Z,66.13
2023-01-17T12:00:19.578Z,68.28
2023-01-17T12:02:49.369Z,67.46
2023-01-17T12:05:31.413Z,64.08
2023-01-17T12:08:06.300Z,65.24
2023-01-17T12:10:43.063Z,64.04
2023-01-17T12:13:47.463Z,64.87
2023-01-17T12:16:30.799Z,64.53
2023-01-17T12:19:22.745Z,63.40
2023-01-17T12:22:06.029Z,63.06
2023-01-17T12:24:45.697Z,65.13
2023-01-17T12:27:42.794Z,59.91
2023-01-17T12:30:31.054Z,59.55
2023-01-17T12:33:41.380Z,60.15
2023-01-17T12:36:19.833Z,59.48
2023-01-17T12:38:48.455Z,59.29
2023-01-17T12:41:26.869Z,60.66
2023-01-17T12:44:01.134Z,60.99
2023-01-17T12:46:40.954Z,60.23
2023-01-17T12:49:20.413Z,59.27
2023-01-17T12:51:52.476Z,59.54
2023-01-17T12:54:42.218Z,58.10
2023-01-17T12:57:18.615Z,58.23
2023-01-17T12:59:58.564Z,57.42
2023-01-17T13:02:37.625Z,58.33
2023-01-17T13:05:07.676Z,56.96
2023-01-17T13:07:46.436Z,57.82
2023-01-17T13:10:22.685Z,57.32
2023-01-17T13:12:51.315Z,57.49
2023-01-17T13:15:23.013Z,57.55
2023-01-17T13:17:59.769Z,56.36
2023-01-17T13:20:32.154Z,56.68
2023-01-17T13:23:12.664Z,56.32
2023-01-17T13:25:49.576Z,55.17
2023-01-17T13:28:29.284Z,54.90
2023-01-17T13:31:08.364Z,53.52
2023-01-17T13:34:10.360Z,54.58
2023-01-17T13:36:46.583Z,54.97
2023-01-17T13:39:37.553Z,54.37
2023-01-17T13:42:27.729Z,54.84
2023-01-17T13:44:55.295Z,54.40
2023-01-17T13:47:23.720Z,54.20
2023-01-17T13:49:56.412Z,55.24
2023-01-17T13:52:26.208Z,54.38
2023-01-17T13:54:54.178Z,56.06
2023-01-17T13:57:29.579Z,56.94
2023-01-17T13:59:58.885Z,56.14
2023-01-17T14:02:31.760Z,56.72
2023-01-17T14:05:21.595Z,56.44
2023-01-17T14:07:52.545Z,56.90
2023-01-17T14:10:34.872Z,56.42
2023-01-17T14:13:03.397Z,55.98
2023-01-17T14:15:35.121Z,56.97
2023-01-17T14:18:04.979Z,56.65
2023-01-17T14:20:45.183Z,57.93
2023-01-17T14:23:26.439Z,58.24
2023-01-17T14:25:54.073Z,58.89
2023-01-17T14:28:38.904Z,58.83
2023-01-17T14:31:11.185Z,60.38
2023-01-17T14:33:40.574Z,59.71
2023-01-17T14:36:31.053Z,60.19
2023-01-17T14:38:58.104Z,61.13
2023-01-17T14:41:53.288Z,61.57
2023-01-17T14:44:20.351Z,62.38
2023-01-17T14:46:49.201Z,62.32
2023-01-17T14:49:24.333Z,63.39
2023-01-17T14:52:02.473Z,63.55
2023-01-17T14:54:29.744Z,64.35
2023-01-17T14:57:23.002Z,64.34
2023-01-17T14:59:50.051Z,64.63
2023-01-17T15:02:18.869Z,65.33
2023-01-17T15:04:55.564Z,65.88
2023-01-17T15:07:24.112Z,66.44
2023-01-17T15:09:51.125Z,67.30
2023-01-17T15:12:19.790Z,66.80
2023-01-17T15:14:47.015Z,67.81
2023-01-17T15:17:25.068Z,68.57
2023-01-17T15:19:57.376Z,68.90
2023-01-17T15:22:26.269Z,68.98
2023-01-17T15:24:56.431Z,69.66
2023-01-17T15:27:24.924Z,69.75
2023-01-17T15:29:52.667Z,69.80
2023-01-17T15:32:28.174Z,69.52
2023-01-17T15:34:55.310Z,70.75
2023-01-17T15:37:35.632Z,70.86
2023-01-17T15:40:33.447Z,71.11
2023-01-17T15:43:01.967Z,70.83
2023-01-17T15:45:33.537Z,70.78
2023-01-17T15:48:39.021Z,70.98
2023-01-17T15:51:06.424Z,70.76
2023-01-17T15:53:37.005Z,71.28
2023-01-17T15:56:31.997Z,71.13
2023-01-17T15:59:34.111Z,71.37
2023-01-17T16:02:02.615Z,71.42
2023-01-17T16:04:35.566Z,71.39
2023-01-17T16:07:20.616Z,71.33
2023-01-17T16:09:49.989Z,72.06
2023-01-17T16:12:16.881Z,72.75
2023-01-17T16:14:59.510Z,76.38
2023-01-17T16:17:32.047Z,76.72
2023-01-17T16:19:59.751Z,76.15
2023-01-17T16:22:27.610Z,76.49
2023-01-17T16:24:59.176Z,77.26
2023-01-17T16:27:26.158Z,76.97
2023-01-17T16:29:56.404Z,78.26
2023-01-17T16:32:23.446Z,79.51
2023-01-17T16:34:50.370Z,79.64
2023-01-17T16:37:17.303Z,80.41
2023-01-17T16:39:44.559Z,80.97
2023-01-17T16:42:12.519Z,82.37
2023-01-17T16:44:39.505Z,83.46
2023-01-17T16:47:06.445Z,84.58
2023-01-17T16:49:33.449Z,84.60
2023-01-17T16:52:00.589Z,85.04
2023-01-17T16:54:28.012Z,84.75
2023-01-17T16:56:55.229Z,85.36
2023-01-17T16:59:23.152Z,84.78
2023-01-17T17:01:53.784Z,84.71
2023-01-17T17:04:20.850Z,85.05
2023-01-17T17:06:47.817Z,85.82
2023-01-17T17:09:14.696Z,85.10
2023-01-17T17:11:42.477Z,85.40
2023-01-17T17:14:09.688Z,86.24
2023-01-17T17:16:38.916Z,86.22
2023-01-17T17:19:07.505Z,86.45
2023-01-17T17:21:35.874Z,85.22
2023-01-17T17:24:03.193Z,84.76
2023-01-17T17:26:34.383Z,85.15
2023-01-17T17:29:02.223Z,84.34
2023-01-17T17:31:29.373Z,84.33
2023-01-17T17:34:01.399Z,83.51
2023-01-17T17:36:29.075Z,81.90
2023-01-17T17:38:57.803Z,81.17
2023-01-17T17:41:27.752Z,81.49
2023-01-17T17:43:55.323Z,83.04
2023-01-17T17:46:24.080Z,84.09
2023-01-17T17:48:51.525Z,83.74
2023-01-17T17:51:31.079Z,84.01
2023-01-17T17:54:03.304Z,83.62
2023-01-17T17:56:32.047Z,82.83
2023-01-17T17:59:00.053Z,82.86
2023-01-17T18:01:27.260Z,83.13
2023-01-17T18:03:57.721Z,82.70
2023-01-17T18:06:24.696Z,82.85
2023-01-17T18:08:54.920Z,82.91
2023-01-17T18:11:24.713Z,83.37
2023-01-17T18:13:55.179Z,83.38
2023-01-17T18:16:28.155Z,83.48
2023-01-17T18:18:57.624Z,82.56
2023-01-17T18:21:33.921Z,83.66
2023-01-17T18:24:06.985Z,81.96
2023-01-17T18:26:37.275Z,82.61
2023-01-17T18:29:05.784Z,83.45
2023-01-17T18:31:32.820Z,85.59
2023-01-17T18:34:03.847Z,85.24
2023-01-17T18:36:31.136Z,85.90
2023-01-17T18:38:58.533Z,86.59
2023-01-17T18:41:29.366Z,86.79
2023-01-17T18:43:56.861Z,85.82
2023-01-17T18:46:26.437Z,86.61
2023-01-17T18:48:57.475Z,85.79
2023-01-17T18:51:24.960Z,86.10
2023-01-17T18:53:53.224Z,86.14
2023-01-17T18:56:22.581Z,87.40
2023-01-17T18:58:51.244Z,88.37
2023-01-17T19:01:27.521Z,89.44
2023-01-17T19:04:00.097Z,89.97
2023-01-17T19:06:36.441Z,90.40
2023-01-17T19:09:04.514Z,90.72
2023-01-17T19:11:31.530Z,91.51
2023-01-17T19:13:58.504Z,90.42
2023-01-17T19:16:28.605Z,90.84
2023-01-17T19:18:58.257Z,90.83
2023-01-17T19:21:27.742Z,90.46
2023-01-17T19:23:56.199Z,90.51
2023-01-17T19:26:25.296Z,90.18
2023-01-17T19:28:53.053Z,90.62
2023-01-17T19:31:22.318Z,90.38
2023-01-17T19:33:51.047Z,90.03
2023-01-17T19:36:21.212Z,90.30
2023-01-17T19:39:03.016Z,90.41
2023-01-17T19:41:32.614Z,90.15
2023-01-17T19:44:04.558Z,89.84
2023-01-17T19:46:32.647Z,89.92
2023-01-17T19:48:59.851Z,90.67
2023-01-17T19:51:27.343Z,89.44
2023-01-17T19:53:55.439Z,88.14
2023-01-17T19:56:25.013Z,86.93
2023-01-17T19:58:53.068Z,86.28
2023-01-17T20:01:28.883Z,87.01
2023-01-17T20:03:58.144Z,86.11
2023-01-17T20:06:27.971Z,85.29
2023-01-17T20:08:55.047Z,83.91
2023-01-17T20:11:23.891Z,83.61
2023-01-17T20:13:55.839Z,83.86
2023-01-17T20:16:24.197Z,83.09
2023-01-17T20:18:51.917Z,82.41
2023-01-17T20:21:24.523Z,82.28
2023-01-17T20:23:52.465Z,81.80
2023-01-17T20:26:25.374Z,83.04
2023-01-17T20:28:53.503Z,82.11
2023-01-17T20:31:25.512Z,82.17
2023-01-17T20:33:56.419Z,82.54
2023-01-17T20:36:25.935Z,82.13
2023-01-17T20:38:54.660Z,82.12
2023-01-17T20:41:29.037Z,81.96
2023-01-17T20:43:58.347Z,81.67
2023-01-17T20:46:28.257Z,81.05
2023-01-17T20:48:58.484Z,81.20
2023-01-17T20:51:28.024Z,81.64
2023-01-17T20:54:05.769Z,81.61
2023-01-17T20:56:37.976Z,81.71
2023-01-17T20:59:07.831Z,80.91
2023-01-17T21:01:35.306Z,81.73
2023-01-17T21:04:03.431Z,81.48
2023-01-17T21:06:30.758Z,81.01
2023-01-17T21:08:57.745Z,81.60
2023-01-17T21:11:27.935Z,80.85
2023-01-17T21:13:54.931Z,80.72
2023-01-17T21:16:23.194Z,80.27
2023-01-17T21:18:51.769Z,80.51
2023-01-17T21:21:23.706Z,81.60
2023-01-17T21:23:52.920Z,82.02
2023-01-17T21:26:22.358Z,82.27
2023-01-17T21:28:50.899Z,82.15
2023-01-17T21:31:24.019Z,82.52
2023-01-17T21:34:11.418Z,82.41
2023-01-17T21:36:40.822Z,82.87
2023-01-17T21:39:12.913Z,83.86
2023-01-17T21:41:41.297Z,83.62
2023-01-17T21:44:24.351Z,83.16
2023-01-17T21:46:56.355Z,84.13
2023-01-17T21:49:23.673Z,84.92
2023-01-17T21:51:53.711Z,84.56
2023-01-17T21:54:44.241Z,84.85
2023-01-17T21:57:30.816Z,85.14
2023-01-17T21:59:57.823Z,84.87
2023-01-17T22:02:24.798Z,85.71
2023-01-17T22:04:51.772Z,85.53
2023-01-17T22:07:18.725Z,86.68
2023-01-17T22:09:45.685Z,86.94
2023-01-17T22:12:16.146Z,84.31
2023-01-17T22:14:43.081Z,85.24
2023-01-17T22:17:09.999Z,84.46
2023-01-17T22:19:36.961Z,84.50
2023-01-17T22:22:04.176Z,84.02
2023-01-17T22:24:31.131Z,84.91
2023-01-17T22:26:58.010Z,84.71
2023-01-17T22:29:25.134Z,85.57
2023-01-17T22:31:52.039Z,85.15
2023-01-17T22:34:19.154Z,85.39
2023-01-17T22:36:46.063Z,84.98
2023-01-17T22:39:13.073Z,84.34
2023-01-17T22:41:40.073Z,84.71
2023-01-17T22:44:07.829Z,84.42
2023-01-17T22:46:38.643Z,84.60
2023-01-17T22:49:07.852Z,86.05
2023-01-17T22:51:35.463Z,83.74
2023-01-17T22:54:02.919Z,83.96
2023-01-17T22:56:32.381Z,85.01
2023-01-17T22:59:01.015Z,85.33
2023-01-17T23:01:30.414Z,84.58
2023-01-17T23:04:00.211Z,86.54
2023-01-17T23:06:32.243Z,86.74
2023-01-17T23:09:02.006Z,87.33
2023-01-17T23:11:39.235Z,88.81
2023-01-17T23:14:06.876Z,89.71
2023-01-17T23:16:52.901Z,90.11
2023-01-17T23:19:22.833Z,89.50
2023-01-17T23:22:14.572Z,89.94
2023-01-17T23:24:43.559Z,89.66
2023-01-17T23:27:31.472Z,91.84
2023-01-17T23:29:58.694Z,92.05
2023-01-17T23:32:26.408Z,94.04
2023-01-17T23:34:53.704Z,94.56
2023-01-17T23:37:20.653Z,93.99
2023-01-17T23:39:47.624Z,95.14
2023-01-17T23:42:34.365Z,94.95
2023-01-17T23:45:01.343Z,93.77
2023-01-17T23:47:28.324Z,93.74
2023-01-17T23:49:57.281Z,94.49
2023-01-17T23:52:24.324Z,93.59
2023-01-17T23:54:51.698Z,94.34
2023-01-17T23:57:20.008Z,95.30
2023-01-17T23:59:46.966Z,95.38
